createdAt,value
2022-11-15T00:01:34.077Z,12.63
2022-11-15T00:04:23.587Z,12.82
2022-11-15T00:07:33.321Z,13.07
2022-11-15T00:10:22.471Z,13.16
2022-11-15T00:13:12.686Z,13.13
2022-11-15T00:16:02.063Z,13.29
2022-11-15T00:18:51.291Z,13.31
2022-11-15T00:21:40.550Z,12.94
2022-11-15T00:24:29.719Z,11.33
2022-11-15T00:27:19.402Z,10.47
2022-11-15T00:30:10.034Z,11.20
2022-11-15T00:32:59.370Z,11.87
2022-11-15T00:35:49.069Z,12.29
2022-11-15T00:38:39.137Z,12.40
2022-11-15T00:41:28.253Z,12.44
2022-11-15T00:44:17.560Z,12.64
2022-11-15T00:47:07.032Z,12.68
2022-11-15T00:49:56.527Z,12.54
2022-11-15T00:52:47.111Z,12.48
2022-11-15T00:55:36.796Z,12.44
2022-11-15T00:58:26.087Z,12.51
2022-11-15T01:01:16.120Z,12.73
2022-11-15T01:04:05.722Z,12.67
2022-11-15T01:06:55.151Z,12.65
2022-11-15T01:09:44.293Z,12.54
2022-11-15T01:12:34.173Z,12.47
2022-11-15T01:15:23.291Z,12.56
2022-11-15T01:18:12.864Z,12.54
2022-11-15T01:21:02.032Z,11.57
2022-11-15T01:23:54.494Z,10.41
2022-11-15T01:26:43.865Z,10.76
2022-11-15T01:29:33.313Z,11.53
2022-11-15T01:32:22.790Z,11.96
2022-11-15T01:35:11.953Z,12.31
2022-11-15T01:38:01.632Z,12.55
2022-11-15T01:40:51.206Z,12.36
2022-11-15T01:43:41.700Z,10.75
2022-11-15T01:46:34.050Z,9.84
2022-11-15T01:49:24.867Z,10.70
2022-11-15T01:52:15.925Z,11.45
2022-11-15T01:55:10.115Z,11.91
2022-11-15T01:58:01.964Z,12.27
2022-11-15T02:00:51.853Z,12.47
2022-11-15T02:03:44.156Z,12.28
2022-11-15T02:06:33.967Z,12.57
2022-11-15T02:09:23.406Z,12.73
2022-11-15T02:12:13.830Z,12.98
2022-11-15T02:15:03.894Z,12.87
2022-11-15T02:18:00.660Z,11.51
2022-11-15T02:20:57.061Z,10.40
2022-11-15T02:24:03.569Z,10.99
2022-11-15T02:27:06.155Z,11.83
2022-11-15T02:30:22.048Z,12.34
2022-11-15T02:33:16.152Z,12.48
2022-11-15T02:36:08.373Z,12.74
2022-11-15T02:39:01.549Z,12.83
2022-11-15T02:41:53.994Z,12.99
2022-11-15T02:44:46.817Z,12.58
2022-11-15T02:47:38.183Z,11.21
2022-11-15T02:50:28.844Z,10.28
2022-11-15T02:53:18.095Z,11.07
2022-11-15T02:56:07.599Z,11.91
2022-11-15T02:59:14.411Z,12.41
2022-11-15T03:02:08.424Z,12.78
2022-11-15T03:05:00.605Z,11.54
2022-11-15T03:07:55.849Z,10.34
2022-11-15T03:10:54.406Z,11.08
2022-11-15T03:13:48.233Z,11.81
2022-11-15T03:16:35.754Z,12.32
2022-11-15T03:19:28.667Z,12.26
2022-11-15T03:22:19.106Z,12.56
2022-11-15T03:25:10.828Z,12.61
2022-11-15T03:28:04.233Z,12.63
2022-11-15T03:30:54.288Z,12.21
2022-11-15T03:33:44.264Z,10.53
2022-11-15T03:36:35.574Z,10.10
2022-11-15T03:39:25.627Z,10.92
2022-11-15T03:42:20.304Z,11.48
2022-11-15T03:45:13.933Z,12.02
2022-11-15T03:48:04.935Z,12.21
2022-11-15T03:50:54.552Z,12.36
2022-11-15T03:53:44.394Z,12.64
2022-11-15T03:56:33.351Z,12.70
2022-11-15T03:59:22.619Z,12.73
2022-11-15T04:02:12.092Z,12.21
2022-11-15T04:05:01.460Z,10.71
2022-11-15T04:07:50.933Z,9.94
2022-11-15T04:10:40.163Z,10.76
2022-11-15T04:13:30.061Z,11.34
2022-11-15T04:16:19.659Z,11.73
2022-11-15T04:19:27.065Z,12.11
2022-11-15T04:22:33.885Z,12.42
2022-11-15T04:25:25.382Z,11.81
2022-11-15T04:28:17.736Z,10.56
2022-11-15T04:31:07.438Z,9.87
2022-11-15T04:33:56.799Z,10.79
2022-11-15T04:37:03.974Z,11.49
2022-11-15T04:39:53.701Z,11.98
2022-11-15T04:42:44.668Z,12.24
2022-11-15T04:45:34.013Z,12.12
2022-11-15T04:48:24.577Z,10.71
2022-11-15T04:51:13.637Z,9.81
2022-11-15T04:54:02.813Z,10.51
2022-11-15T04:56:51.916Z,11.09
2022-11-15T04:59:41.271Z,11.51
2022-11-15T05:02:50.587Z,11.88
2022-11-15T05:05:40.358Z,12.08
2022-11-15T05:08:29.518Z,12.23
2022-11-15T05:11:18.644Z,12.29
2022-11-15T05:14:07.951Z,12.09
2022-11-15T05:16:57.727Z,10.75
2022-11-15T05:19:47.218Z,9.85
2022-11-15T05:22:36.942Z,10.55
2022-11-15T05:25:26.164Z,11.19
2022-11-15T05:28:15.414Z,11.53
2022-11-15T05:31:04.572Z,11.84
2022-11-15T05:33:54.348Z,12.04
2022-11-15T05:36:44.115Z,12.13
2022-11-15T05:39:33.219Z,12.04
2022-11-15T05:42:22.676Z,12.13
2022-11-15T05:45:12.298Z,11.69
2022-11-15T05:48:02.153Z,10.24
2022-11-15T05:50:51.298Z,8.94
2022-11-15T05:53:41.078Z,8.44
2022-11-15T05:56:30.858Z,9.50
2022-11-15T05:59:20.679Z,10.40
2022-11-15T06:02:10.043Z,10.77
2022-11-15T06:04:59.483Z,11.16
2022-11-15T06:07:49.048Z,11.08
2022-11-15T06:10:38.082Z,11.20
2022-11-15T06:13:28.113Z,11.27
2022-11-15T06:16:17.772Z,11.41
2022-11-15T06:19:07.978Z,11.50
2022-11-15T06:21:57.690Z,11.53
2022-11-15T06:24:48.247Z,11.58
2022-11-15T06:27:37.778Z,11.62
2022-11-15T06:30:27.910Z,11.54
2022-11-15T06:33:17.275Z,11.57
2022-11-15T06:36:10.828Z,10.60
2022-11-15T06:39:02.671Z,9.17
2022-11-15T06:41:52.146Z,8.51
2022-11-15T06:44:41.420Z,9.46
2022-11-15T06:47:31.198Z,10.21
2022-11-15T06:50:20.870Z,10.67
2022-11-15T06:53:10.085Z,10.97
2022-11-15T06:56:02.081Z,10.98
2022-11-15T06:58:51.339Z,11.16
2022-11-15T07:01:40.896Z,11.33
2022-11-15T07:04:30.290Z,11.35
2022-11-15T07:07:19.595Z,11.58
2022-11-15T07:10:10.254Z,11.40
2022-11-15T07:12:59.337Z,10.06
2022-11-15T07:15:48.786Z,9.16
2022-11-15T07:18:38.686Z,9.73
2022-11-15T07:21:27.985Z,10.36
2022-11-15T07:24:17.417Z,10.76
2022-11-15T07:27:06.985Z,11.18
2022-11-15T07:29:56.544Z,11.36
2022-11-15T07:32:46.282Z,10.18
2022-11-15T07:35:35.395Z,9.21
2022-11-15T07:38:24.768Z,9.98
2022-11-15T07:41:14.066Z,10.68
2022-11-15T07:44:03.873Z,11.07
2022-11-15T07:46:53.514Z,11.42
2022-11-15T07:49:44.732Z,11.67
2022-11-15T07:52:33.981Z,10.71
2022-11-15T07:55:23.555Z,9.36
2022-11-15T07:58:13.913Z,9.71
2022-11-15T08:01:06.695Z,10.63
2022-11-15T08:03:56.793Z,11.19
2022-11-15T08:06:47.733Z,11.31
2022-11-15T08:09:37.304Z,11.51
2022-11-15T08:12:27.167Z,11.77
2022-11-15T08:15:16.928Z,10.95
2022-11-15T08:18:07.395Z,9.67
2022-11-15T08:21:00.474Z,9.11
2022-11-15T08:23:49.841Z,10.12
2022-11-15T08:26:40.599Z,10.83
2022-11-15T08:29:29.853Z,11.02
2022-11-15T08:32:18.996Z,11.40
2022-11-15T08:35:09.727Z,11.59
2022-11-15T08:37:59.046Z,11.84
2022-11-15T08:40:48.022Z,11.99
2022-11-15T08:43:37.209Z,12.13
2022-11-15T08:46:26.393Z,11.00
2022-11-15T08:49:15.668Z,10.25
2022-11-15T08:52:05.495Z,11.22
2022-11-15T08:54:54.858Z,11.96
2022-11-15T08:57:44.235Z,12.30
2022-11-15T09:00:34.540Z,12.36
2022-11-15T09:03:24.292Z,11.23
2022-11-15T09:06:13.293Z,10.56
2022-11-15T09:09:02.627Z,11.48
2022-11-15T09:11:52.007Z,12.24
2022-11-15T09:14:41.574Z,12.56
2022-11-15T09:17:30.836Z,12.93
2022-11-15T09:20:20.219Z,12.59
2022-11-15T09:23:09.618Z,11.42
2022-11-15T09:26:02.419Z,10.84
2022-11-15T09:28:51.388Z,11.82
2022-11-15T09:31:40.551Z,12.53
2022-11-15T09:34:29.974Z,12.50
2022-11-15T09:37:18.944Z,11.41
2022-11-15T09:40:11.539Z,10.69
2022-11-15T09:43:07.354Z,11.22
2022-11-15T09:46:02.250Z,12.10
2022-11-15T09:48:55.684Z,12.77
2022-11-15T09:51:47.886Z,12.48
2022-11-15T09:54:51.517Z,10.76
2022-11-15T09:57:16.612Z,11.90
2022-11-15T10:00:38.827Z,12.58
2022-11-15T10:03:05.141Z,11.69
2022-11-15T10:05:39.602Z,11.18
2022-11-15T10:08:15.038Z,11.63
2022-11-15T10:10:48.182Z,12.34
2022-11-15T10:13:21.471Z,13.10
2022-11-15T10:15:50.577Z,11.81
2022-11-15T10:18:26.339Z,11.15
2022-11-15T10:20:59.646Z,12.17
2022-11-15T10:23:30.453Z,12.80
2022-11-15T10:26:06.589Z,12.51
2022-11-15T10:28:37.547Z,11.30
2022-11-15T10:31:23.365Z,11.49
2022-11-15T10:33:53.853Z,12.25
2022-11-15T10:36:27.026Z,12.57
2022-11-15T10:39:00.757Z,12.60
2022-11-15T10:41:37.832Z,12.97
2022-11-15T10:44:13.389Z,13.28
2022-11-15T10:46:47.164Z,12.78
2022-11-15T10:49:18.964Z,11.72
2022-11-15T10:51:51.467Z,12.92
2022-11-15T10:54:24.706Z,12.52
2022-11-15T10:56:58.775Z,11.39
2022-11-15T10:59:34.825Z,12.02
2022-11-15T11:02:22.302Z,12.82
2022-11-15T11:04:53.254Z,13.32
2022-11-15T11:07:25.076Z,13.73
2022-11-15T11:10:00.975Z,13.92
2022-11-15T11:12:33.436Z,13.53
2022-11-15T11:15:11.649Z,12.47
2022-11-15T11:17:50.569Z,12.46
2022-11-15T11:20:24.273Z,13.23
2022-11-15T11:22:59.977Z,13.87
2022-11-15T11:25:35.073Z,14.15
2022-11-15T11:28:15.145Z,13.40
2022-11-15T11:30:49.317Z,12.68
2022-11-15T11:33:23.021Z,14.11
2022-11-15T11:36:01.950Z,13.18
2022-11-15T11:38:41.893Z,12.48
2022-11-15T11:41:15.771Z,13.40
2022-11-15T11:43:51.618Z,13.92
2022-11-15T11:46:32.113Z,13.63
2022-11-15T11:49:05.517Z,14.21
2022-11-15T12:04:51.028Z,13.98
2022-11-15T12:07:24.435Z,13.26
2022-11-15T12:09:58.796Z,12.55
2022-11-15T12:12:34.542Z,12.80
2022-11-15T12:15:06.724Z,13.81
2022-11-15T12:17:38.355Z,14.61
2022-11-15T12:20:17.910Z,14.20
2022-11-15T12:22:51.812Z,13.07
2022-11-15T12:25:23.352Z,12.96
2022-11-15T12:27:57.582Z,13.88
2022-11-15T12:30:43.168Z,14.70
2022-11-15T12:33:27.295Z,13.77
2022-11-15T12:36:01.989Z,12.63
2022-11-15T12:38:49.869Z,12.68
2022-11-15T12:41:21.672Z,14.17
2022-11-15T12:43:52.659Z,14.02
2022-11-15T12:46:47.293Z,13.04
2022-11-15T12:49:43.888Z,13.31
2022-11-15T12:52:14.652Z,13.79
2022-11-15T12:54:56.613Z,14.60
2022-11-15T12:57:38.307Z,14.01
2022-11-15T13:00:26.663Z,12.96
2022-11-15T13:03:19.001Z,13.53
2022-11-15T13:06:00.363Z,14.28
2022-11-15T13:08:38.984Z,14.77
2022-11-15T13:11:26.640Z,14.07
2022-11-15T13:13:58.076Z,13.07
2022-11-15T13:16:28.810Z,13.53
2022-11-15T13:19:00.927Z,14.15
2022-11-15T13:21:48.785Z,14.73
2022-11-15T13:24:19.692Z,14.60
2022-11-15T13:26:50.989Z,13.07
2022-11-15T13:29:22.241Z,12.59
2022-11-15T13:31:53.055Z,13.44
2022-11-15T13:37:33.680Z,14.82
2022-11-15T13:40:21.494Z,15.13
2022-11-15T13:42:52.175Z,13.93
2022-11-15T13:45:23.412Z,12.98
2022-11-15T13:48:07.368Z,13.35
2022-11-15T14:04:20.888Z,13.57
2022-11-15T14:06:53.130Z,14.48
2022-11-15T14:09:37.454Z,14.89
2022-11-15T14:12:26.118Z,15.08
2022-11-15T14:14:56.935Z,14.08
2022-11-15T14:17:38.443Z,13.01
2022-11-15T14:20:29.635Z,13.52
2022-11-15T14:23:01.805Z,14.47
2022-11-15T14:25:33.187Z,14.93
2022-11-15T14:28:14.934Z,14.36
2022-11-15T14:30:48.380Z,13.12
2022-11-15T14:33:24.292Z,12.55
2022-11-15T14:35:55.742Z,13.51
2022-11-15T14:38:26.882Z,14.41
2022-11-15T14:40:58.085Z,14.97
2022-11-15T14:43:28.764Z,15.20
2022-11-15T14:45:59.552Z,14.14
2022-11-15T14:48:30.432Z,13.05
2022-11-15T14:51:01.981Z,12.76
2022-11-15T14:53:32.720Z,13.68
2022-11-15T14:56:03.451Z,14.53
2022-11-15T14:58:34.658Z,15.13
2022-11-15T15:01:13.216Z,15.23
2022-11-15T15:03:45.285Z,14.19
2022-11-15T15:06:18.245Z,13.22
2022-11-15T15:08:51.650Z,12.76
2022-11-15T15:11:24.347Z,13.64
2022-11-15T15:13:58.146Z,14.60
2022-11-15T15:16:28.974Z,15.11
2022-11-15T15:18:59.612Z,14.18
2022-11-15T15:21:36.761Z,13.16
2022-11-15T15:24:08.346Z,12.76
2022-11-15T15:26:40.301Z,13.77
2022-11-15T15:29:11.142Z,14.75
2022-11-15T15:31:41.975Z,15.29
2022-11-15T15:34:16.889Z,15.37
2022-11-15T15:36:47.957Z,14.47
2022-11-15T15:39:18.479Z,13.43
2022-11-15T15:41:52.269Z,12.82
2022-11-15T15:44:26.106Z,13.70
2022-11-15T15:46:59.169Z,14.41
2022-11-15T15:49:30.013Z,14.98
2022-11-15T15:52:01.054Z,13.89
2022-11-15T15:54:31.687Z,12.97
2022-11-15T15:57:02.436Z,13.71
2022-11-15T15:59:33.720Z,14.58
2022-11-15T16:02:04.367Z,15.07
2022-11-15T16:04:35.227Z,15.02
2022-11-15T16:07:05.779Z,13.92
2022-11-15T16:09:54.730Z,12.97
2022-11-15T16:12:25.650Z,13.27
2022-11-15T16:14:56.796Z,14.25
2022-11-15T16:17:33.768Z,14.93
2022-11-15T16:20:05.292Z,15.41
2022-11-15T16:22:36.136Z,15.36
2022-11-15T16:25:07.463Z,14.27
2022-11-15T16:27:39.718Z,13.24
2022-11-15T16:30:14.304Z,12.85
2022-11-15T16:32:45.162Z,13.87
2022-11-15T16:35:16.644Z,14.81
2022-11-15T16:37:47.727Z,15.42
2022-11-15T16:40:25.427Z,15.50
2022-11-15T16:42:58.144Z,14.40
2022-11-15T16:45:29.554Z,13.45
2022-11-15T16:48:00.299Z,13.10
2022-11-15T16:50:33.168Z,14.06
2022-11-15T16:53:04.314Z,14.99
2022-11-15T16:55:35.051Z,15.55
2022-11-15T16:58:05.676Z,15.05
2022-11-15T17:00:36.216Z,13.90
2022-11-15T17:03:07.382Z,13.26
2022-11-15T17:05:38.594Z,14.09
2022-11-15T17:08:09.908Z,14.98
2022-11-15T17:10:41.933Z,15.48
2022-11-15T17:13:13.573Z,15.61
2022-11-15T17:15:44.959Z,14.67
2022-11-15T17:18:16.043Z,13.68
2022-11-15T17:20:46.526Z,13.20
2022-11-15T17:23:17.758Z,14.02
2022-11-15T17:25:48.449Z,14.82
2022-11-15T17:28:19.099Z,15.38
2022-11-15T17:30:49.547Z,15.49
2022-11-15T17:33:20.402Z,14.53
2022-11-15T17:35:58.259Z,13.53
2022-11-15T17:38:29.273Z,13.10
2022-11-15T17:41:04.154Z,14.01
2022-11-15T17:43:35.465Z,14.80
2022-11-15T17:46:07.555Z,15.31
2022-11-15T17:48:38.425Z,15.63
2022-11-15T17:51:10.575Z,14.87
2022-11-15T17:53:42.124Z,13.71
2022-11-15T17:56:14.498Z,13.55
2022-11-15T17:58:48.672Z,14.29
2022-11-15T18:01:20.391Z,14.84
2022-11-15T18:03:51.236Z,15.25
2022-11-15T18:06:22.712Z,15.53
2022-11-15T18:08:53.795Z,15.52
2022-11-15T18:11:25.412Z,14.41
2022-11-15T18:13:57.007Z,13.27
2022-11-15T18:16:28.622Z,12.77
2022-11-15T18:19:00.323Z,13.67
2022-11-15T18:21:34.099Z,14.65
2022-11-15T18:24:05.315Z,15.17
2022-11-15T18:26:35.954Z,14.34
2022-11-15T18:29:06.375Z,13.22
2022-11-15T18:31:36.925Z,12.78
2022-11-15T18:34:07.426Z,13.69
2022-11-15T18:36:39.144Z,14.62
2022-11-15T18:39:16.440Z,15.14
2022-11-15T18:41:47.764Z,15.47
2022-11-15T18:44:18.511Z,15.71
2022-11-15T18:46:49.759Z,15.04
2022-11-15T18:49:20.854Z,13.86
2022-11-15T18:51:51.367Z,13.23
2022-11-15T18:54:25.528Z,13.99
2022-11-15T18:56:59.090Z,14.79
2022-11-15T18:59:30.403Z,15.31
2022-11-15T19:02:00.837Z,15.65
2022-11-15T19:04:31.592Z,15.48
2022-11-15T19:07:02.286Z,14.40
2022-11-15T19:09:33.177Z,13.25
2022-11-15T19:12:03.577Z,12.73
2022-11-15T19:14:34.560Z,13.59
2022-11-15T19:17:05.247Z,14.48
2022-11-15T19:19:36.132Z,15.12
2022-11-15T19:22:06.612Z,15.57
2022-11-15T19:24:37.147Z,15.63
2022-11-15T19:27:07.671Z,14.65
2022-11-15T19:29:38.297Z,13.61
2022-11-15T19:32:09.135Z,13.00
2022-11-15T19:34:41.856Z,13.76
2022-11-15T19:37:12.749Z,14.64
2022-11-15T19:39:43.484Z,15.09
2022-11-15T19:42:14.734Z,15.41
2022-11-15T19:44:45.277Z,15.44
2022-11-15T19:47:16.102Z,14.37
2022-11-15T19:49:47.740Z,13.35
2022-11-15T19:52:19.251Z,13.53
2022-11-15T19:54:49.731Z,14.27
2022-11-15T19:57:20.671Z,14.79
2022-11-15T19:59:51.193Z,15.17
2022-11-15T20:02:21.860Z,15.49
2022-11-15T20:04:52.427Z,15.41
2022-11-15T20:07:24.391Z,14.36
2022-11-15T20:09:55.118Z,13.36
2022-11-15T20:12:25.926Z,12.95
2022-11-15T20:14:56.719Z,13.90
2022-11-15T20:17:27.764Z,14.81
2022-11-15T20:19:59.942Z,15.36
2022-11-15T20:22:30.659Z,15.22
2022-11-15T20:25:01.394Z,14.03
2022-11-15T20:27:32.122Z,13.29
2022-11-15T20:30:03.169Z,13.98
2022-11-15T20:32:33.846Z,14.71
2022-11-15T20:35:04.630Z,15.19
2022-11-15T20:37:36.342Z,15.53
2022-11-15T20:40:07.740Z,15.78
2022-11-15T20:42:38.412Z,15.73
2022-11-15T20:45:09.929Z,14.67
2022-11-15T20:47:40.755Z,13.51
2022-11-15T20:50:40.338Z,13.19
2022-11-15T20:53:02.396Z,14.15
2022-11-15T20:55:33.070Z,14.77
2022-11-15T20:58:03.671Z,15.17
2022-11-15T21:00:34.227Z,15.46
2022-11-15T21:03:07.384Z,15.64
2022-11-15T21:05:36.466Z,15.62
2022-11-15T21:08:07.683Z,14.61
2022-11-15T21:10:55.757Z,13.58
2022-11-15T21:13:27.204Z,13.19
2022-11-15T21:15:58.737Z,14.16
2022-11-15T21:18:29.282Z,14.96
2022-11-15T21:21:04.881Z,15.43
2022-11-15T21:23:36.231Z,15.72
2022-11-15T21:26:06.912Z,15.72
2022-11-15T21:28:37.674Z,14.67
2022-11-15T21:31:08.323Z,13.56
2022-11-15T21:33:39.121Z,13.49
2022-11-15T21:36:10.487Z,14.36
2022-11-15T21:38:41.086Z,14.97
2022-11-15T21:41:11.793Z,15.35
2022-11-15T21:43:42.726Z,15.61
2022-11-15T21:46:13.387Z,15.47
2022-11-15T21:48:44.029Z,14.31
2022-11-15T21:51:14.686Z,13.19
2022-11-15T21:53:45.587Z,13.18
2022-11-15T21:56:16.427Z,14.11
2022-11-15T21:58:47.404Z,14.81
2022-11-15T22:01:35.570Z,15.25
2022-11-15T22:04:06.822Z,15.60
2022-11-15T22:06:37.648Z,15.86
2022-11-15T22:09:08.830Z,15.26
2022-11-15T22:11:39.374Z,14.12
2022-11-15T22:14:10.101Z,13.51
2022-11-15T22:16:40.584Z,14.28
2022-11-15T22:19:11.255Z,15.08
2022-11-15T22:21:42.144Z,15.55
2022-11-15T22:24:12.929Z,15.76
2022-11-15T22:26:43.406Z,15.60
2022-11-15T22:29:13.889Z,14.33
2022-11-15T22:31:44.548Z,13.69
2022-11-15T22:34:15.042Z,13.98
2022-11-15T22:37:13.232Z,14.30
2022-11-15T22:39:36.880Z,14.71
2022-11-15T22:42:07.721Z,15.59
2022-11-15T22:44:38.350Z,14.55
2022-11-15T22:47:10.116Z,13.34
2022-11-15T22:49:42.580Z,13.73
2022-11-15T22:52:14.033Z,14.34
2022-11-15T22:54:44.567Z,14.74
2022-11-15T22:57:15.527Z,15.02
2022-11-15T22:59:46.126Z,15.29
2022-11-15T23:02:17.335Z,15.56
2022-11-15T23:04:47.849Z,15.79
2022-11-15T23:07:18.508Z,15.86
2022-11-15T23:09:52.167Z,15.87
2022-11-15T23:12:40.789Z,14.85
2022-11-15T23:15:11.732Z,13.80
2022-11-15T23:17:42.793Z,14.36
2022-11-15T23:20:36.720Z,14.98
2022-11-15T23:23:04.921Z,15.45
2022-11-15T23:25:35.447Z,15.74
2022-11-15T23:28:06.719Z,15.74
2022-11-15T23:30:55.414Z,15.75
2022-11-15T23:33:44.077Z,15.45
2022-11-15T23:36:14.631Z,15.36
2022-11-15T23:38:45.311Z,15.43
2022-11-15T23:41:15.821Z,15.71
2022-11-15T23:43:46.620Z,15.36
2022-11-15T23:46:17.561Z,13.91
2022-11-15T23:48:48.494Z,13.79
2022-11-15T23:51:18.946Z,14.37
2022-11-15T23:53:49.704Z,14.88
2022-11-15T23:56:20.935Z,15.25
2022-11-15T23:58:51.740Z,15.50
